Time;durP1;ratioP1;P1;durP2;ratioP2;P2;SDS_P1;SDS_P2;PMS_P1;PMS_P2;Temp;Humidity;BMP_temperature;BMP_pressure;BME280_temperature;BME280_humidity;BME280_pressure;Samples;Min_cycle;Max_cycle;Signal;HPM_P1;HPM_P2
2021/08/12 00:00:46;;;;;;;8.90;7.23;;;17.10;1.00;;;;;;5052329;28;20279;-62
2021/08/12 00:03:12;;;;;;;9.23;7.30;;;17.10;1.00;;;;;;5052280;28;20213;-61
2021/08/12 00:05:39;;;;;;;10.90;7.33;;;17.10;99.90;;;;;;5052155;28;20263;-62
2021/08/12 00:08:07;;;;;;;10.47;7.30;;;17.10;99.90;;;;;;5051961;28;20770;-62
2021/08/12 00:10:33;;;;;;;12.53;7.40;;;17.10;99.90;;;;;;5035880;28;20238;-62
2021/08/12 00:13:00;;;;;;;9.67;6.70;;;17.10;99.90;;;;;;5031812;28;20252;-62
2021/08/12 00:15:28;;;;;;;11.43;6.77;;;17.10;99.90;;;;;;5032170;28;20202;-62
2021/08/12 00:17:55;;;;;;;9.70;6.93;;;17.10;99.90;;;;;;5032252;28;20202;-62
2021/08/12 00:20:21;;;;;;;8.73;7.10;;;17.10;99.90;;;;;;5031827;28;20234;-62
2021/08/12 00:22:48;;;;;;;8.80;6.90;;;17.10;99.90;;;;;;5031866;28;20272;-62
2021/08/12 00:25:15;;;;;;;8.83;7.03;;;17.10;45.50;;;;;;5040361;28;20194;-62
2021/08/12 00:27:41;;;;;;;9.40;7.00;;;17.00;99.90;;;;;;5037053;28;20202;-62
2021/08/12 00:30:09;;;;;;;12.00;7.57;;;17.00;99.90;;;;;;5031844;28;20611;-62
2021/08/12 00:32:37;;;;;;;9.47;7.17;;;16.90;99.90;;;;;;5031664;28;20232;-62
2021/08/12 00:35:04;;;;;;;11.07;7.67;;;16.90;99.90;;;;;;5031378;28;20234;-62
2021/08/12 00:37:30;;;;;;;10.80;7.23;;;16.80;1.00;;;;;;5031487;28;20206;-62
2021/08/12 00:39:57;;;;;;;8.13;7.10;;;16.80;1.00;;;;;;5031787;28;20284;-62
2021/08/12 00:42:24;;;;;;;11.97;7.23;;;16.80;1.00;;;;;;5030137;28;20260;-62
2021/08/12 00:44:51;;;;;;;9.07;7.23;;;16.80;1.00;;;;;;5031534;28;20214;-62
2021/08/12 00:47:17;;;;;;;8.57;6.60;;;16.70;1.00;;;;;;5031562;28;20207;-62
2021/08/12 00:49:45;;;;;;;8.63;6.60;;;16.60;1.00;;;;;;5031370;28;20630;-62
2021/08/12 00:52:12;;;;;;;12.27;7.20;;;16.60;76.00;;;;;;5030730;28;20343;-62
2021/08/12 00:54:39;;;;;;;8.77;6.33;;;16.60;99.90;;;;;;5031239;28;20330;-62
2021/08/12 00:57:07;;;;;;;9.63;7.43;;;16.60;99.90;;;;;;5031364;28;20675;-62
2021/08/12 00:59:37;;;;;;;9.30;7.23;;;16.60;99.90;;;;;;5050292;28;20213;-62
2021/08/12 01:02:06;;;;;;;10.17;6.73;;;16.60;99.90;;;;;;5048964;28;20213;-62
2021/08/12 01:04:33;;;;;;;9.57;7.63;;;16.50;99.90;;;;;;5050677;28;20227;-62
2021/08/12 01:07:07;;;;;;;9.50;7.33;;;16.50;99.90;;;;;;5051463;28;20206;-62
2021/08/12 01:09:43;;;;;;;11.43;7.70;;;16.40;99.90;;;;;;5051512;28;20214;-62
2021/08/12 01:12:17;;;;;;;9.83;7.40;;;16.40;1.00;;;;;;5051394;28;20213;-62
2021/08/12 01:14:53;;;;;;;9.53;7.07;;;16.40;1.00;;;;;;5051039;28;20274;-62
2021/08/12 01:17:24;;;;;;;12.30;7.90;;;16.40;1.00;;;;;;5044731;28;20214;-62
2021/08/12 01:20:35;;;;;;;12.37;7.47;;;16.40;99.90;;;;;;5031656;28;20260;-62
2021/08/12 01:23:06;;;;;;;8.60;7.17;;;16.40;99.90;;;;;;5035328;28;20210;-62
2021/08/12 01:25:35;;;;;;;9.47;7.97;;;16.30;99.90;;;;;;5034779;28;20206;-62
2021/08/12 01:28:07;;;;;;;9.33;7.00;;;16.20;99.90;;;;;;5035428;28;20209;-62
2021/08/12 01:30:45;;;;;;;8.43;7.17;;;16.20;99.90;;;;;;5034846;28;20237;-62
2021/08/12 01:33:20;;;;;;;9.03;7.37;;;16.20;1.00;;;;;;5033782;28;20264;-62
2021/08/12 01:35:49;;;;;;;8.43;7.33;;;16.20;1.00;;;;;;5031878;28;20279;-63
2021/08/12 01:38:19;;;;;;;8.33;7.00;;;16.20;1.00;;;;;;5033807;28;20206;-62
2021/08/12 01:40:46;;;;;;;12.20;8.07;;;16.20;1.00;;;;;;5033852;28;21016;-62
2021/08/12 01:43:16;;;;;;;13.03;7.60;;;16.10;1.00;;;;;;5033644;28;20214;-62
2021/08/12 01:45:47;;;;;;;10.47;7.80;;;16.10;99.90;;;;;;5033509;28;20202;-62
2021/08/12 01:48:14;;;;;;;10.57;7.43;;;16.10;99.90;;;;;;5033553;28;20660;-62
2021/08/12 01:50:43;;;;;;;10.47;7.10;;;16.10;1.00;;;;;;5033077;28;20769;-62
2021/08/12 01:53:12;;;;;;;15.30;7.93;;;16.00;1.00;;;;;;5033407;28;20214;-62
2021/08/12 01:55:39;;;;;;;9.80;7.20;;;16.00;99.90;;;;;;5033647;28;20286;-62
2021/08/12 01:58:06;;;;;;;10.20;7.87;;;16.00;99.90;;;;;;5032862;28;20675;-62
2021/08/12 02:00:36;;;;;;;9.23;8.30;;;16.00;99.90;;;;;;5033539;28;20276;-62
2021/08/12 02:03:03;;;;;;;13.03;8.77;;;16.00;1.00;;;;;;5033529;28;20671;-62
2021/08/12 02:05:30;;;;;;;13.43;8.27;;;16.00;1.00;;;;;;5033541;28;20206;-62
2021/08/12 02:07:57;;;;;;;9.83;8.23;;;16.00;1.00;;;;;;5034933;28;20258;-62
2021/08/12 02:10:25;;;;;;;10.93;8.13;;;16.00;42.70;;;;;;5053114;28;20283;-62
2021/08/12 02:12:52;;;;;;;11.17;7.73;;;15.90;99.90;;;;;;5053010;28;20668;-62
2021/08/12 02:15:18;;;;;;;9.27;8.10;;;15.90;99.90;;;;;;5052863;28;20285;-62
2021/08/12 02:17:45;;;;;;;9.37;7.30;;;15.90;99.90;;;;;;5053187;28;20658;-62
2021/08/12 02:20:14;;;;;;;11.23;8.17;;;15.90;99.90;;;;;;5052862;28;20267;-62
2021/08/12 02:22:48;;;;;;;14.57;9.10;;;15.90;99.90;;;;;;5053264;28;20279;-62
2021/08/12 02:25:19;;;;;;;10.57;9.03;;;16.00;99.90;;;;;;5051341;28;20252;-62
2021/08/12 02:27:49;;;;;;;12.53;9.00;;;16.00;99.90;;;;;;5052720;28;20669;-62
2021/08/12 02:30:17;;;;;;;12.93;8.97;;;15.90;99.90;;;;;;5017995;28;1008192;-62
2021/08/12 02:32:46;;;;;;;13.10;8.93;;;15.90;99.90;;;;;;5053694;28;20674;-62
2021/08/12 02:35:13;;;;;;;11.60;9.83;;;15.90;99.90;;;;;;5054028;28;20232;-62
2021/08/12 02:37:41;;;;;;;9.83;8.70;;;15.90;99.90;;;;;;5053915;28;20887;-62
2021/08/12 02:40:09;;;;;;;11.30;8.33;;;15.90;99.90;;;;;;5053876;28;20222;-62
2021/08/12 02:42:39;;;;;;;12.37;8.70;;;15.90;99.90;;;;;;5051957;28;20202;-62
2021/08/12 02:45:08;;;;;;;11.40;8.50;;;15.90;99.90;;;;;;5053960;28;20621;-62
2021/08/12 02:47:35;;;;;;;9.80;8.17;;;15.90;99.90;;;;;;5053899;28;20291;-62
2021/08/12 02:50:04;;;;;;;10.33;8.80;;;15.90;99.90;;;;;;5053497;28;20229;-62
2021/08/12 02:52:33;;;;;;;10.57;8.97;;;15.80;99.90;;;;;;5053835;28;20209;-62
2021/08/12 02:55:00;;;;;;;11.27;8.70;;;15.80;69.30;;;;;;5053293;28;20225;-62
2021/08/12 02:57:27;;;;;;;12.60;8.83;;;15.80;71.70;;;;;;5053890;28;20235;-62
2021/08/12 02:59:54;;;;;;;13.23;9.70;;;15.80;99.90;;;;;;5041609;28;20202;-62
2021/08/12 03:02:23;;;;;;;13.43;9.63;;;15.80;99.90;;;;;;5033728;28;20218;-62
2021/08/12 03:04:49;;;;;;;14.67;8.90;;;15.80;99.90;;;;;;5033594;28;20203;-62
2021/08/12 03:07:18;;;;;;;11.97;8.97;;;15.80;99.90;;;;;;5033561;28;20260;-62
2021/08/12 03:09:49;;;;;;;14.70;9.83;;;15.80;99.90;;;;;;5033305;28;20214;-62
2021/08/12 03:12:18;;;;;;;13.80;9.77;;;15.80;99.90;;;;;;5033419;28;20293;-62
2021/08/12 03:14:45;;;;;;;13.53;9.37;;;15.80;99.90;;;;;;5033432;28;20229;-62
2021/08/12 03:17:12;;;;;;;13.87;9.60;;;15.80;99.90;;;;;;5031920;28;20202;-62
2021/08/12 03:19:42;;;;;;;11.40;8.90;;;15.80;99.90;;;;;;5033409;28;20241;-62
2021/08/12 03:22:10;;;;;;;10.90;9.27;;;15.80;99.90;;;;;;5033065;28;20210;-62
2021/08/12 03:24:40;;;;;;;11.43;8.80;;;15.80;99.90;;;;;;5032893;28;20210;-62
2021/08/12 03:27:10;;;;;;;12.33;9.73;;;15.80;99.90;;;;;;5033310;28;20206;-62
2021/08/12 03:29:37;;;;;;;10.97;9.07;;;15.80;99.90;;;;;;5033282;28;20206;-62
2021/08/12 03:32:04;;;;;;;12.60;8.87;;;15.70;99.90;;;;;;5042689;28;20256;-62
2021/08/12 03:34:31;;;;;;;11.03;9.07;;;15.70;99.90;;;;;;5035233;28;20222;-62
2021/08/12 03:36:59;;;;;;;11.00;9.30;;;15.70;99.90;;;;;;5033059;28;20211;-62
2021/08/12 03:39:25;;;;;;;11.10;9.03;;;15.70;99.90;;;;;;5032851;28;20260;-62
2021/08/12 03:41:52;;;;;;;10.07;8.97;;;15.70;99.90;;;;;;5032534;28;20695;-62
2021/08/12 03:44:19;;;;;;;13.00;10.27;;;15.70;99.90;;;;;;5032042;28;20256;-62
2021/08/12 03:46:46;;;;;;;10.83;9.07;;;15.70;99.90;;;;;;5032633;28;20210;-62
2021/08/12 03:49:13;;;;;;;12.50;9.53;;;15.70;99.90;;;;;;5032721;28;20671;-62
2021/08/12 03:51:39;;;;;;;12.37;9.47;;;15.70;99.90;;;;;;5046772;28;20839;-62
2021/08/12 03:54:07;;;;;;;10.27;8.90;;;15.70;99.90;;;;;;5052668;28;20202;-62
2021/08/12 03:56:34;;;;;;;14.10;9.40;;;15.60;99.90;;;;;;5052000;28;20251;-62
2021/08/12 03:59:00;;;;;;;12.27;9.97;;;15.60;99.90;;;;;;5052605;28;20206;-62
2021/08/12 04:01:29;;;;;;;12.20;8.90;;;15.60;99.90;;;;;;5052416;28;20276;-62
2021/08/12 04:03:56;;;;;;;11.87;8.47;;;15.60;99.90;;;;;;5052608;28;20206;-62
2021/08/12 04:06:22;;;;;;;12.80;8.97;;;15.50;99.90;;;;;;5052648;28;20662;-62
2021/08/12 04:08:49;;;;;;;11.30;9.20;;;15.50;99.90;;;;;;5029475;28;20611;-62
2021/08/12 04:11:17;;;;;;;14.60;9.57;;;15.50;99.90;;;;;;5032246;28;20287;-62
2021/08/12 04:13:44;;;;;;;15.07;10.33;;;15.50;99.90;;;;;;5038515;28;20233;-62
2021/08/12 04:16:11;;;;;;;13.67;10.13;;;15.50;99.90;;;;;;5051412;28;20275;-62
2021/08/12 04:18:37;;;;;;;11.70;9.80;;;15.60;1.00;;;;;;5051983;28;20236;-62
2021/08/12 04:21:05;;;;;;;12.53;9.33;;;15.60;1.00;;;;;;5052286;28;20225;-62
2021/08/12 04:23:32;;;;;;;15.63;10.13;;;15.60;1.00;;;;;;5052127;28;20208;-62
2021/08/12 04:25:58;;;;;;;11.80;9.67;;;15.50;1.00;;;;;;5051885;28;20650;-62
2021/08/12 04:28:26;;;;;;;13.73;9.50;;;15.50;1.00;;;;;;5051823;28;20206;-62
2021/08/12 04:30:53;;;;;;;12.13;9.50;;;15.50;1.00;;;;;;5051352;28;20233;-62
2021/08/12 04:33:20;;;;;;;13.37;9.57;;;15.50;1.00;;;;;;5052179;28;20205;-62
2021/08/12 04:35:47;;;;;;;12.90;9.23;;;15.60;1.00;;;;;;5051704;28;20233;-62
2021/08/12 04:38:14;;;;;;;12.00;9.90;;;15.50;1.00;;;;;;5051717;28;20206;-62
2021/08/12 04:40:40;;;;;;;13.63;9.83;;;15.50;1.00;;;;;;5051841;28;20233;-62
2021/08/12 04:43:07;;;;;;;13.10;9.53;;;15.60;1.00;;;;;;5051643;28;20206;-62
2021/08/12 04:45:35;;;;;;;12.37;9.73;;;15.60;1.00;;;;;;5051371;28;20657;-62
2021/08/12 04:48:03;;;;;;;11.43;9.67;;;15.60;1.00;;;;;;5051386;28;20284;-62
2021/08/12 04:50:30;;;;;;;13.77;10.30;;;15.60;1.00;;;;;;5051812;28;20279;-62
2021/08/12 04:52:56;;;;;;;11.10;9.23;;;15.60;1.00;;;;;;5051527;28;20209;-62
2021/08/12 04:55:23;;;;;;;11.90;9.30;;;15.60;1.00;;;;;;5051351;28;20856;-62
2021/08/12 04:57:50;;;;;;;15.20;9.73;;;15.60;1.00;;;;;;5051297;28;20210;-62
2021/08/12 05:00:17;;;;;;;13.57;9.37;;;15.70;1.00;;;;;;5051461;28;20233;-62
2021/08/12 05:02:45;;;;;;;11.83;10.17;;;15.70;1.00;;;;;;5051575;28;20263;-62
2021/08/12 05:05:11;;;;;;;13.03;9.77;;;15.70;1.00;;;;;;5050586;28;20213;-62
2021/08/12 05:07:38;;;;;;;15.00;10.33;;;15.80;1.00;;;;;;5050945;28;20209;-62
2021/08/12 05:10:06;;;;;;;12.13;10.30;;;15.80;1.00;;;;;;5051542;28;20225;-62
2021/08/12 05:12:32;;;;;;;11.93;9.83;;;15.90;1.00;;;;;;5051194;28;20209;-62
2021/08/12 05:14:59;;;;;;;13.67;10.47;;;15.90;1.00;;;;;;5051478;28;20221;-62
2021/08/12 05:17:26;;;;;;;13.37;10.00;;;16.00;1.00;;;;;;5051141;28;20223;-62
2021/08/12 05:19:54;;;;;;;13.70;9.03;;;16.00;1.00;;;;;;5051348;28;20628;-62
2021/08/12 05:22:22;;;;;;;11.60;9.63;;;16.10;1.00;;;;;;5051157;28;20205;-62
2021/08/12 05:24:49;;;;;;;11.20;8.67;;;16.20;1.00;;;;;;5050927;28;20719;-61
2021/08/12 05:27:16;;;;;;;11.10;8.90;;;16.20;99.90;;;;;;5051089;28;20206;-62
2021/08/12 05:29:43;;;;;;;12.73;9.17;;;16.30;99.90;;;;;;5051062;28;20205;-62
2021/08/12 05:32:10;;;;;;;9.53;8.53;;;16.30;99.90;;;;;;5051426;28;20206;-62
2021/08/12 05:34:37;;;;;;;8.87;7.97;;;16.30;99.90;;;;;;5051147;28;20579;-62
2021/08/12 05:37:05;;;;;;;10.23;9.07;;;16.30;99.90;;;;;;5051032;28;20226;-62
2021/08/12 05:39:32;;;;;;;12.57;8.93;;;16.30;99.90;;;;;;5050837;28;20263;-62
2021/08/12 05:41:58;;;;;;;12.77;10.60;;;16.30;99.90;;;;;;5051378;28;20259;-62
2021/08/12 05:44:25;;;;;;;15.13;11.40;;;16.30;99.90;;;;;;5050936;28;20640;-62
2021/08/12 05:46:52;;;;;;;18.37;11.53;;;16.30;99.90;;;;;;5051321;28;20206;-62
2021/08/12 05:49:22;;;;;;;15.20;11.20;;;16.40;99.90;;;;;;5051065;28;20694;-61
2021/08/12 05:51:48;;;;;;;12.70;10.20;;;16.50;99.90;;;;;;5050991;28;20229;-62
2021/08/12 05:54:16;;;;;;;11.60;10.13;;;16.60;64.70;;;;;;5050765;28;20578;-62
2021/08/12 05:56:43;;;;;;;14.07;10.40;;;16.70;1.00;;;;;;5051118;28;20275;-62
2021/08/12 05:59:09;;;;;;;13.23;9.80;;;16.80;1.00;;;;;;5051115;28;20198;-62
2021/08/12 06:01:36;;;;;;;11.77;9.07;;;17.00;99.90;;;;;;5050798;28;20714;-62
2021/08/12 06:04:03;;;;;;;9.73;8.47;;;17.10;36.20;;;;;;5050883;28;20602;-62
2021/08/12 06:06:30;;;;;;;11.03;8.83;;;17.10;99.90;;;;;;5051365;28;20206;-62
2021/08/12 06:08:57;;;;;;;12.10;8.43;;;17.20;1.00;;;;;;5054321;28;20209;-62
2021/08/12 06:11:25;;;;;;;11.27;8.80;;;17.20;99.90;;;;;;5054623;28;20251;-62
2021/08/12 06:13:52;;;;;;;12.00;8.07;;;17.20;1.00;;;;;;5054128;28;20740;-62
2021/08/12 06:16:18;;;;;;;12.30;8.63;;;17.30;1.00;;;;;;5054814;28;20283;-62
2021/08/12 06:18:45;;;;;;;8.93;7.50;;;17.40;1.00;;;;;;5051710;28;20209;-62
2021/08/12 06:21:14;;;;;;;11.60;7.30;;;17.40;1.00;;;;;;5054121;28;20226;-62
2021/08/12 06:23:40;;;;;;;10.60;7.53;;;17.50;99.90;;;;;;5053819;28;20206;-62
2021/08/12 06:26:07;;;;;;;8.93;7.27;;;17.70;99.90;;;;;;5054148;28;20256;-62
2021/08/12 06:28:35;;;;;;;11.40;7.30;;;17.80;99.90;;;;;;5054229;28;20694;-62
2021/08/12 06:31:01;;;;;;;8.67;7.33;;;17.90;1.00;;;;;;5053919;28;20249;-62
2021/08/12 06:33:28;;;;;;;10.70;7.33;;;18.00;99.90;;;;;;5053611;28;20255;-62
2021/08/12 06:35:55;;;;;;;11.40;7.50;;;18.10;1.00;;;;;;5038549;28;20230;-62
2021/08/12 06:38:22;;;;;;;10.77;7.30;;;18.20;1.00;;;;;;5034444;28;20614;-62
2021/08/12 06:40:48;;;;;;;10.93;7.17;;;18.30;99.90;;;;;;5034024;28;20284;-62
2021/08/12 06:43:15;;;;;;;8.90;7.53;;;18.50;99.90;;;;;;5033610;28;20214;-62
2021/08/12 06:45:44;;;;;;;10.97;7.53;;;18.50;99.90;;;;;;5033791;28;20211;-62
2021/08/12 06:48:11;;;;;;;10.07;7.80;;;18.60;99.90;;;;;;5034078;28;20241;-62
2021/08/12 06:50:38;;;;;;;9.57;7.53;;;18.70;59.20;;;;;;5033869;28;20230;-62
2021/08/12 06:53:04;;;;;;;10.97;8.10;;;18.80;1.00;;;;;;5047313;28;20244;-62
2021/08/12 06:55:31;;;;;;;9.17;7.70;;;18.90;99.90;;;;;;5053042;28;20635;-62
2021/08/12 06:57:58;;;;;;;9.17;7.47;;;18.90;99.90;;;;;;5037712;28;20202;-62
2021/08/12 07:00:25;;;;;;;11.17;7.67;;;18.90;96.10;;;;;;5033681;28;20329;-62
2021/08/12 07:02:54;;;;;;;8.93;7.73;;;19.00;99.90;;;;;;5033643;28;20206;-63
2021/08/12 07:05:21;;;;;;;9.90;8.03;;;19.10;1.00;;;;;;5032925;28;20206;-62
2021/08/12 07:07:47;;;;;;;7.67;6.70;;;19.10;1.00;;;;;;5043391;28;20264;-62
2021/08/12 07:10:14;;;;;;;14.07;8.70;;;19.20;99.90;;;;;;5051578;28;20225;-63
2021/08/12 07:12:41;;;;;;;9.80;7.10;;;19.20;1.00;;;;;;5039731;28;20202;-62
2021/08/12 07:15:08;;;;;;;10.63;7.17;;;19.20;1.00;;;;;;5032967;28;20261;-62
2021/08/12 07:17:35;;;;;;;9.70;7.03;;;19.30;1.00;;;;;;5032434;28;20226;-62
2021/08/12 07:20:04;;;;;;;9.43;7.57;;;19.40;1.00;;;;;;5032852;28;20227;-62
2021/08/12 07:22:31;;;;;;;13.63;7.47;;;19.40;99.90;;;;;;5033476;28;20258;-62
2021/08/12 07:24:59;;;;;;;9.77;7.40;;;19.50;1.00;;;;;;5033110;28;20202;-62
2021/08/12 07:27:26;;;;;;;11.40;7.90;;;19.60;99.90;;;;;;5030619;28;20260;-62
2021/08/12 07:29:52;;;;;;;9.50;7.57;;;19.70;99.90;;;;;;5032915;28;20207;-62
2021/08/12 07:32:19;;;;;;;11.13;7.30;;;19.80;99.90;;;;;;5033039;28;20206;-62
2021/08/12 07:34:45;;;;;;;11.70;7.40;;;19.90;99.90;;;;;;5032876;28;20254;-63
2021/08/12 07:37:13;;;;;;;8.97;7.90;;;20.00;19.80;;;;;;5032773;28;20222;-62
2021/08/12 07:39:40;;;;;;;13.03;7.77;;;20.20;1.00;;;;;;5032939;28;20241;-62
2021/08/12 07:42:07;;;;;;;12.00;7.10;;;20.30;1.00;;;;;;5033174;28;20265;-63
2021/08/12 07:44:33;;;;;;;9.23;6.97;;;20.50;1.00;;;;;;5050418;28;20209;-63
2021/08/12 07:47:00;;;;;;;9.73;7.50;;;20.60;1.00;;;;;;5052885;28;20633;-63
2021/08/12 07:49:26;;;;;;;10.43;6.87;;;20.70;99.90;;;;;;5052461;28;20213;-62
2021/08/12 07:51:53;;;;;;;10.10;7.50;;;20.90;99.90;;;;;;5052234;28;20771;-63
2021/08/12 07:54:21;;;;;;;11.97;7.03;;;20.90;99.90;;;;;;5052439;28;20209;-62
2021/08/12 07:56:49;;;;;;;9.50;6.87;;;21.10;11.00;;;;;;5052375;28;20702;-63
2021/08/12 07:59:15;;;;;;;10.13;6.40;;;21.30;32.30;;;;;;5050622;28;20209;-63
2021/08/12 08:01:42;;;;;;;8.97;6.70;;;21.50;91.50;;;;;;5052101;28;20229;-63
2021/08/12 08:04:09;;;;;;;10.90;6.67;;;21.70;1.00;;;;;;5052083;28;20670;-63
2021/08/12 08:06:35;;;;;;;11.73;6.47;;;21.80;1.00;;;;;;5052412;28;20276;-61
2021/08/12 08:09:02;;;;;;;9.43;6.20;;;21.90;1.00;;;;;;5052176;28;20205;-61
2021/08/12 08:11:31;;;;;;;11.77;6.90;;;21.80;1.00;;;;;;5051719;28;20232;-61
2021/08/12 08:13:57;;;;;;;9.93;6.50;;;21.80;1.00;;;;;;5051895;28;20591;-62
2021/08/12 08:16:26;;;;;;;7.67;5.97;;;21.80;1.00;;;;;;5047922;28;20229;-62
2021/08/12 08:18:53;;;;;;;7.10;6.03;;;21.80;1.00;;;;;;5032177;28;20733;-62
2021/08/12 08:21:19;;;;;;;8.93;6.67;;;21.80;1.00;;;;;;5032067;28;20284;-62
2021/08/12 08:23:46;;;;;;;9.13;6.33;;;21.80;1.00;;;;;;5031739;28;20214;-62
2021/08/12 08:26:13;;;;;;;9.50;6.43;;;22.00;1.00;;;;;;5031688;28;20202;-63
2021/08/12 08:28:41;;;;;;;8.30;6.33;;;22.20;1.00;;;;;;5032131;28;20210;-63
2021/08/12 08:31:07;;;;;;;10.37;6.53;;;22.40;1.00;;;;;;5031580;28;20233;-63
2021/08/12 08:33:36;;;;;;;8.43;7.00;;;22.50;1.00;;;;;;5030226;28;20279;-63
2021/08/12 08:36:03;;;;;;;10.03;6.53;;;22.50;1.00;;;;;;5031996;28;20640;-62
2021/08/12 08:38:30;;;;;;;8.03;5.47;;;22.50;1.00;;;;;;5032143;28;20683;-62
2021/08/12 08:40:57;;;;;;;8.93;5.30;;;22.50;1.00;;;;;;5031547;28;20236;-63
2021/08/12 08:43:24;;;;;;;11.33;6.13;;;22.50;1.00;;;;;;5031491;28;20203;-63
2021/08/12 08:45:53;;;;;;;10.20;6.37;;;22.60;1.00;;;;;;5031809;28;20210;-63
2021/08/12 08:48:21;;;;;;;9.20;6.80;;;22.70;1.00;;;;;;5032006;28;20206;-63
2021/08/12 08:50:49;;;;;;;9.10;6.10;;;22.60;1.00;;;;;;5029829;28;20222;-63
2021/08/12 08:53:17;;;;;;;9.17;6.03;;;22.80;1.00;;;;;;5031657;28;20206;-62
2021/08/12 08:55:43;;;;;;;8.00;6.30;;;23.00;1.00;;;;;;5031044;28;20582;-61
2021/08/12 08:58:10;;;;;;;12.33;6.83;;;23.20;1.00;;;;;;5031257;28;20234;-63
2021/08/12 09:00:37;;;;;;;9.97;6.40;;;23.30;1.00;;;;;;5041915;28;20233;-65
2021/08/12 09:03:06;;;;;;;10.77;6.40;;;23.40;1.00;;;;;;5048872;28;20292;-64
2021/08/12 09:05:32;;;;;;;7.27;5.57;;;23.30;99.90;;;;;;5051090;28;20619;-65
2021/08/12 09:08:00;;;;;;;9.17;6.37;;;23.50;99.90;;;;;;5042793;28;20252;-66
2021/08/12 09:10:27;;;;;;;8.77;5.57;;;23.50;99.90;;;;;;5031430;28;20317;-67
2021/08/12 09:12:53;;;;;;;9.17;6.30;;;23.60;99.90;;;;;;5029671;28;20210;-68
2021/08/12 09:15:21;;;;;;;11.00;6.17;;;23.50;99.90;;;;;;5030837;28;20236;-67
2021/08/12 09:17:49;;;;;;;9.17;6.67;;;23.30;99.90;;;;;;5031046;28;20412;-67
2021/08/12 09:20:18;;;;;;;9.23;6.70;;;23.30;99.90;;;;;;5030978;28;20643;-66
2021/08/12 09:22:54;;;;;;;11.90;7.13;;;23.40;1.00;;;;;;5030631;28;20210;-65
2021/08/12 09:25:30;;;;;;;9.67;8.57;;;23.50;1.00;;;;;;5032673;28;20929;-64
2021/08/12 09:28:17;;;;;;;8.00;6.43;;;23.80;99.90;;;;;;5050690;28;20212;-65
2021/08/12 09:31:02;;;;;;;13.43;7.77;;;23.90;99.90;;;;;;5050576;28;20240;-66
2021/08/12 09:33:31;;;;;;;10.60;7.17;;;23.80;99.90;;;;;;5050581;28;20213;-67
2021/08/12 09:36:00;;;;;;;10.40;6.23;;;23.80;99.90;;;;;;5050922;28;20206;-67
2021/08/12 09:38:27;;;;;;;12.17;6.83;;;24.00;99.90;;;;;;5050246;28;20252;-66
2021/08/12 09:40:55;;;;;;;10.93;6.67;;;24.20;99.90;;;;;;5048660;28;20229;-66
2021/08/12 09:43:23;;;;;;;7.73;5.90;;;24.20;99.90;;;;;;5052721;28;20199;-65
2021/08/12 09:45:50;;;;;;;13.37;6.50;;;24.20;99.90;;;;;;5054882;28;20214;-66
2021/08/12 09:48:18;;;;;;;9.90;6.80;;;24.20;99.90;;;;;;5054492;28;20206;-67
2021/08/12 09:50:46;;;;;;;10.63;7.70;;;24.10;99.90;;;;;;5054732;28;20257;-65
2021/08/12 09:53:20;;;;;;;8.97;6.73;;;24.20;99.90;;;;;;5055177;28;20205;-65
2021/08/12 09:55:48;;;;;;;9.73;7.37;;;24.20;99.90;;;;;;5054833;28;20875;-64
2021/08/12 09:58:15;;;;;;;16.50;9.27;;;24.30;99.90;;;;;;5055041;28;20718;-64
2021/08/12 10:00:45;;;;;;;13.13;7.67;;;24.10;99.90;;;;;;5053677;28;20240;-65
2021/08/12 10:03:23;;;;;;;10.77;8.23;;;23.90;99.90;;;;;;5054258;28;20210;-65
2021/08/12 10:05:50;;;;;;;10.47;7.73;;;23.80;99.90;;;;;;5054255;28;20209;-66
2021/08/12 10:08:37;;;;;;;11.70;7.53;;;23.90;99.90;;;;;;5053569;28;20267;-66
2021/08/12 10:11:20;;;;;;;10.97;7.40;;;24.00;99.90;;;;;;5053984;28;20221;-64
2021/08/12 10:13:48;;;;;;;12.33;7.23;;;24.00;99.90;;;;;;5054014;28;20209;-64
2021/08/12 10:16:16;;;;;;;9.33;7.50;;;24.20;99.90;;;;;;5054416;28;20216;-63
2021/08/12 10:18:44;;;;;;;11.70;7.50;;;24.10;99.90;;;;;;5047104;28;20297;-64
2021/08/12 10:21:12;;;;;;;8.83;6.90;;;24.10;99.90;;;;;;5052759;28;20634;-66
2021/08/12 10:23:41;;;;;;;9.60;7.07;;;24.20;99.90;;;;;;5053990;28;20776;-65
2021/08/12 10:26:08;;;;;;;10.50;7.60;;;24.40;99.90;;;;;;5053763;28;20271;-64
2021/08/12 10:28:38;;;;;;;17.33;7.63;;;24.40;99.90;;;;;;5033844;28;20249;-65
2021/08/12 10:31:06;;;;;;;9.53;6.73;;;24.60;99.90;;;;;;5043014;28;20287;-64
2021/08/12 10:33:34;;;;;;;8.20;5.33;;;24.70;99.90;;;;;;5053375;28;20235;-64
2021/08/12 10:36:02;;;;;;;8.53;5.60;;;24.80;99.90;;;;;;5053909;28;20251;-64
2021/08/12 10:38:29;;;;;;;10.63;7.53;;;25.00;99.90;;;;;;5053112;28;20283;-64
2021/08/12 10:40:57;;;;;;;12.03;6.53;;;25.10;99.90;;;;;;5053580;28;20229;-64
2021/08/12 10:43:26;;;;;;;12.77;8.90;;;25.20;99.90;;;;;;5053590;28;20267;-64
2021/08/12 10:45:57;;;;;;;13.77;7.87;;;25.00;99.90;;;;;;5053598;28;20209;-65
2021/08/12 10:48:24;;;;;;;11.47;6.97;;;25.00;99.90;;;;;;5053643;28;20201;-65
2021/08/12 10:51:07;;;;;;;10.93;7.00;;;24.90;99.90;;;;;;5053082;28;20276;-65
2021/08/12 10:53:34;;;;;;;14.27;7.77;;;24.80;99.90;;;;;;5053077;28;20212;-66
2021/08/12 10:56:08;;;;;;;10.10;7.50;;;24.90;99.90;;;;;;5053473;28;20627;-65
2021/08/12 10:58:36;;;;;;;10.67;6.50;;;24.80;99.90;;;;;;5053224;28;20229;-66
2021/08/12 11:01:06;;;;;;;12.27;7.07;;;25.00;99.90;;;;;;5053380;28;20253;-64
2021/08/12 11:03:55;;;;;;;8.07;5.57;;;25.20;99.90;;;;;;5053494;28;20643;-64
2021/08/12 11:06:34;;;;;;;9.13;5.90;;;25.30;99.90;;;;;;5046180;28;20214;-64
2021/08/12 11:09:02;;;;;;;10.20;6.20;;;25.20;99.90;;;;;;5053425;28;20259;-64
2021/08/12 11:11:57;;;;;;;10.60;6.60;;;25.20;99.90;;;;;;5052741;28;20229;-64
2021/08/12 11:14:57;;;;;;;8.37;5.83;;;25.20;99.90;;;;;;5052786;28;20213;-65
2021/08/12 11:17:24;;;;;;;8.57;6.00;;;25.30;99.90;;;;;;5053091;28;20238;-65
2021/08/12 11:19:53;;;;;;;8.57;6.03;;;25.40;99.90;;;;;;5053008;28;20684;-65
2021/08/12 11:22:34;;;;;;;7.63;5.17;;;25.40;99.90;;;;;;5052950;28;20259;-65
2021/08/12 11:25:01;;;;;;;6.57;3.70;;;25.20;99.90;;;;;;5052839;28;20201;-65
2021/08/12 11:27:38;;;;;;;5.10;3.53;;;25.20;99.90;;;;;;5052631;28;20710;-65
2021/08/12 11:30:48;;;;;;;5.90;4.63;;;25.20;99.90;;;;;;5052311;28;20718;-64
2021/08/12 11:33:43;;;;;;;7.50;4.67;;;25.30;99.90;;;;;;5052681;28;20210;-65
2021/08/12 11:36:29;;;;;;;7.20;5.00;;;25.30;99.90;;;;;;5052329;28;20662;-65
2021/08/12 11:39:02;;;;;;;6.60;4.23;;;25.30;99.90;;;;;;5052577;28;20598;-64
2021/08/12 11:41:36;;;;;;;6.57;4.37;;;25.40;99.90;;;;;;5052305;28;20283;-65
2021/08/12 11:44:08;;;;;;;7.20;4.40;;;25.40;99.90;;;;;;5052257;28;20205;-63
2021/08/12 11:46:37;;;;;;;12.00;4.27;;;25.40;99.90;;;;;;5052805;28;20259;-64
2021/08/12 11:49:04;;;;;;;8.07;4.63;;;25.50;99.90;;;;;;5052296;28;20586;-64
2021/08/12 11:51:32;;;;;;;6.27;4.57;;;25.50;99.90;;;;;;5052129;28;20283;-65
2021/08/12 11:53:58;;;;;;;9.57;4.93;;;25.30;99.90;;;;;;5051973;28;20214;-65
2021/08/12 11:56:27;;;;;;;6.53;4.67;;;25.20;99.90;;;;;;5052357;28;20241;-64
2021/08/12 11:58:55;;;;;;;7.57;4.53;;;25.10;99.90;;;;;;5052203;28;20217;-64
2021/08/12 12:01:25;;;;;;;7.17;4.60;;;25.20;99.90;;;;;;5052151;28;20281;-64
2021/08/12 12:03:58;;;;;;;9.13;4.70;;;25.20;99.90;;;;;;5051515;28;20201;-64
2021/08/12 12:06:36;;;;;;;6.27;4.50;;;25.30;99.90;;;;;;5052247;28;20255;-65
2021/08/12 12:09:22;;;;;;;16.70;5.00;;;25.40;99.90;;;;;;5051944;28;20243;-64
2021/08/12 12:11:54;;;;;;;16.13;5.67;;;25.40;99.90;;;;;;5051692;28;20226;-64
2021/08/12 12:14:22;;;;;;;7.57;4.23;;;25.20;99.90;;;;;;5052035;28;20216;-66
2021/08/12 12:17:16;;;;;;;7.43;4.10;;;25.20;99.90;;;;;;5052167;28;20739;-66
2021/08/12 12:20:07;;;;;;;6.07;3.83;;;25.20;99.90;;;;;;5051476;28;20654;-66
2021/08/12 12:22:34;;;;;;;8.77;4.10;;;25.30;99.90;;;;;;5051593;28;20205;-65
2021/08/12 12:25:02;;;;;;;5.63;3.73;;;25.30;99.90;;;;;;5051760;28;20272;-64
2021/08/12 12:27:29;;;;;;;9.57;3.90;;;25.20;99.90;;;;;;5049757;28;20217;-64
2021/08/12 12:30:05;;;;;;;7.80;4.07;;;25.30;99.90;;;;;;5051352;28;20240;-64
2021/08/12 12:32:33;;;;;;;6.83;4.00;;;25.30;99.90;;;;;;5051062;28;20205;-65
2021/08/12 12:35:04;;;;;;;6.27;4.10;;;25.40;99.90;;;;;;5051487;28;20224;-65
2021/08/12 12:37:32;;;;;;;6.57;4.03;;;25.30;99.90;;;;;;5051559;28;20328;-64
2021/08/12 12:39:58;;;;;;;8.73;3.77;;;25.40;99.90;;;;;;5051575;28;20230;-65
2021/08/12 12:42:25;;;;;;;10.20;6.50;;;25.40;99.90;;;;;;5050677;28;20255;-65
2021/08/12 12:45:03;;;;;;;5.83;3.97;;;25.40;99.90;;;;;;5049726;28;20339;-66
2021/08/12 12:47:33;;;;;;;6.60;4.17;;;25.50;99.90;;;;;;5051266;28;20693;-65
2021/08/12 12:50:12;;;;;;;7.53;3.90;;;25.40;99.90;;;;;;5051390;28;20268;-64
2021/08/12 12:52:53;;;;;;;8.23;4.00;;;25.30;99.90;;;;;;5050688;28;20263;-65